sensor_id;sensor_type;location;lat;lon;timestamp;temperature;humidity
2973;DHT22;1496;51.404;7.232;2023-05-07T00:00:16;14.50;67.50
2973;DHT22;1496;51.404;7.232;2023-05-07T00:02:45;14.50;48.20
2973;DHT22;1496;51.404;7.232;2023-05-07T00:05:21;14.40;41.60
2973;DHT22;1496;51.404;7.232;2023-05-07T00:07:49;14.40;53.30
2973;DHT22;1496;51.404;7.232;2023-05-07T00:10:19;14.30;62.00
2973;DHT22;1496;51.404;7.232;2023-05-07T00:12:47;14.30;74.80
2973;DHT22;1496;51.404;7.232;2023-05-07T00:15:14;14.30;93.10
2973;DHT22;1496;51.404;7.232;2023-05-07T00:17:42;14.30;88.80
2973;DHT22;1496;51.404;7.232;2023-05-07T00:20:09;14.30;92.20
2973;DHT22;1496;51.404;7.232;2023-05-07T00:22:38;14.30;96.00
2973;DHT22;1496;51.404;7.232;2023-05-07T00:25:05;14.30;94.90
2973;DHT22;1496;51.404;7.232;2023-05-07T00:27:32;14.30;86.50
2973;DHT22;1496;51.404;7.232;2023-05-07T00:29:59;14.30;96.60
2973;DHT22;1496;51.404;7.232;2023-05-07T00:32:27;14.30;97.90
2973;DHT22;1496;51.404;7.232;2023-05-07T00:34:53;14.30;94.40
2973;DHT22;1496;51.404;7.232;2023-05-07T00:37:21;14.30;99.90
2973;DHT22;1496;51.404;7.232;2023-05-07T00:39:47;14.30;90.40
2973;DHT22;1496;51.404;7.232;2023-05-07T00:42:15;14.30;78.30
2973;DHT22;1496;51.404;7.232;2023-05-07T00:44:42;14.20;88.60
2973;DHT22;1496;51.404;7.232;2023-05-07T00:47:10;14.20;99.90
2973;DHT22;1496;51.404;7.232;2023-05-07T00:49:42;14.20;99.90
2973;DHT22;1496;51.404;7.232;2023-05-07T00:52:16;14.10;99.90
2973;DHT22;1496;51.404;7.232;2023-05-07T00:54:43;14.10;99.90
2973;DHT22;1496;51.404;7.232;2023-05-07T00:57:11;14.10;99.90
2973;DHT22;1496;51.404;7.232;2023-05-07T00:59:38;14.10;99.90
2973;DHT22;1496;51.404;7.232;2023-05-07T01:02:07;14.00;99.90
2973;DHT22;1496;51.404;7.232;2023-05-07T01:04:34;14.00;99.90
2973;DHT22;1496;51.404;7.232;2023-05-07T01:07:03;14.00;99.90
2973;DHT22;1496;51.404;7.232;2023-05-07T01:09:33;14.00;99.90
2973;DHT22;1496;51.404;7.232;2023-05-07T01:12:03;14.00;99.90
2973;DHT22;1496;51.404;7.232;2023-05-07T01:14:33;14.00;99.90
2973;DHT22;1496;51.404;7.232;2023-05-07T01:17:01;14.00;99.90
2973;DHT22;1496;51.404;7.232;2023-05-07T01:19:29;14.00;99.90
2973;DHT22;1496;51.404;7.232;2023-05-07T01:22:03;14.00;99.90
2973;DHT22;1496;51.404;7.232;2023-05-07T01:24:36;14.00;99.90
2973;DHT22;1496;51.404;7.232;2023-05-07T01:27:04;14.00;99.90
2973;DHT22;1496;51.404;7.232;2023-05-07T01:29:34;14.00;99.90
2973;DHT22;1496;51.404;7.232;2023-05-07T01:32:02;14.00;99.90
2973;DHT22;1496;51.404;7.232;2023-05-07T01:34:32;14.00;99.90
2973;DHT22;1496;51.404;7.232;2023-05-07T01:37:01;14.10;99.90
2973;DHT22;1496;51.404;7.232;2023-05-07T01:39:29;14.00;99.90
2973;DHT22;1496;51.404;7.232;2023-05-07T01:41:56;14.00;99.90
2973;DHT22;1496;51.404;7.232;2023-05-07T01:44:25;14.00;99.90
2973;DHT22;1496;51.404;7.232;2023-05-07T01:46:54;14.00;99.90
2973;DHT22;1496;51.404;7.232;2023-05-07T01:49:21;14.00;99.90
2973;DHT22;1496;51.404;7.232;2023-05-07T01:51:48;14.00;1.00
2973;DHT22;1496;51.404;7.232;2023-05-07T01:54:15;14.00;1.00
2973;DHT22;1496;51.404;7.232;2023-05-07T01:56:44;14.00;1.00
2973;DHT22;1496;51.404;7.232;2023-05-07T01:59:14;14.00;1.00
2973;DHT22;1496;51.404;7.232;2023-05-07T02:01:42;14.00;1.00
2973;DHT22;1496;51.404;7.232;2023-05-07T02:04:10;14.00;1.00
2973;DHT22;1496;51.404;7.232;2023-05-07T02:06:41;13.90;1.00
2973;DHT22;1496;51.404;7.232;2023-05-07T02:09:10;13.90;1.00
2973;DHT22;1496;51.404;7.232;2023-05-07T02:11:40;13.90;1.00
2973;DHT22;1496;51.404;7.232;2023-05-07T02:14:07;13.80;1.00
2973;DHT22;1496;51.404;7.232;2023-05-07T02:16:33;13.80;1.00
2973;DHT22;1496;51.404;7.232;2023-05-07T02:19:02;13.80;1.00
2973;DHT22;1496;51.404;7.232;2023-05-07T02:21:28;13.80;1.00
2973;DHT22;1496;51.404;7.232;2023-05-07T02:23:56;13.80;1.00
2973;DHT22;1496;51.404;7.232;2023-05-07T02:26:24;13.80;1.00
2973;DHT22;1496;51.404;7.232;2023-05-07T02:28:53;13.80;1.00
2973;DHT22;1496;51.404;7.232;2023-05-07T02:31:25;13.80;1.00
2973;DHT22;1496;51.404;7.232;2023-05-07T02:33:52;13.80;1.00
2973;DHT22;1496;51.404;7.232;2023-05-07T02:36:20;13.80;1.00
2973;DHT22;1496;51.404;7.232;2023-05-07T02:39:17;13.80;1.00
2973;DHT22;1496;51.404;7.232;2023-05-07T02:41:44;13.80;99.90
2973;DHT22;1496;51.404;7.232;2023-05-07T02:44:10;13.70;99.90
2973;DHT22;1496;51.404;7.232;2023-05-07T02:46:38;13.70;1.00
2973;DHT22;1496;51.404;7.232;2023-05-07T02:49:08;13.70;1.00
2973;DHT22;1496;51.404;7.232;2023-05-07T02:51:35;13.70;1.00
2973;DHT22;1496;51.404;7.232;2023-05-07T02:54:07;13.70;1.00
2973;DHT22;1496;51.404;7.232;2023-05-07T02:56:35;13.70;1.00
2973;DHT22;1496;51.404;7.232;2023-05-07T02:59:03;13.70;1.00
2973;DHT22;1496;51.404;7.232;2023-05-07T03:01:35;13.80;1.00
2973;DHT22;1496;51.404;7.232;2023-05-07T03:04:07;13.70;1.00
2973;DHT22;1496;51.404;7.232;2023-05-07T03:06:34;13.70;1.00
2973;DHT22;1496;51.404;7.232;2023-05-07T03:09:03;13.70;99.90
2973;DHT22;1496;51.404;7.232;2023-05-07T03:11:31;13.70;99.90
2973;DHT22;1496;51.404;7.232;2023-05-07T03:13:57;13.80;99.90
2973;DHT22;1496;51.404;7.232;2023-05-07T03:16:24;13.70;99.90
2973;DHT22;1496;51.404;7.232;2023-05-07T03:18:51;13.70;99.90
2973;DHT22;1496;51.404;7.232;2023-05-07T03:21:19;13.70;99.90
2973;DHT22;1496;51.404;7.232;2023-05-07T03:23:45;13.70;99.90
2973;DHT22;1496;51.404;7.232;2023-05-07T03:26:12;13.70;99.90
2973;DHT22;1496;51.404;7.232;2023-05-07T03:28:38;13.70;99.90
2973;DHT22;1496;51.404;7.232;2023-05-07T03:31:08;13.70;99.90
2973;DHT22;1496;51.404;7.232;2023-05-07T03:33:49;13.70;99.90
2973;DHT22;1496;51.404;7.232;2023-05-07T03:36:28;13.70;99.90
2973;DHT22;1496;51.404;7.232;2023-05-07T03:38:56;13.70;99.90
2973;DHT22;1496;51.404;7.232;2023-05-07T03:41:26;13.70;99.90
2973;DHT22;1496;51.404;7.232;2023-05-07T03:43:55;13.70;1.00
2973;DHT22;1496;51.404;7.232;2023-05-07T03:46:22;13.70;1.00
2973;DHT22;1496;51.404;7.232;2023-05-07T03:48:55;13.60;1.00
2973;DHT22;1496;51.404;7.232;2023-05-07T03:51:23;13.60;1.00
2973;DHT22;1496;51.404;7.232;2023-05-07T03:53:58;13.50;1.00
2973;DHT22;1496;51.404;7.232;2023-05-07T03:56:27;13.50;1.00
2973;DHT22;1496;51.404;7.232;2023-05-07T03:58:57;13.50;1.00
2973;DHT22;1496;51.404;7.232;2023-05-07T04:01:24;13.40;1.00
2973;DHT22;1496;51.404;7.232;2023-05-07T04:03:52;13.40;1.00
2973;DHT22;1496;51.404;7.232;2023-05-07T04:06:20;13.30;99.90
2973;DHT22;1496;51.404;7.232;2023-05-07T04:08:50;13.30;99.90
2973;DHT22;1496;51.404;7.232;2023-05-07T04:11:18;13.30;1.00
2973;DHT22;1496;51.404;7.232;2023-05-07T04:13:46;13.20;99.90
2973;DHT22;1496;51.404;7.232;2023-05-07T04:16:15;13.10;99.90
2973;DHT22;1496;51.404;7.232;2023-05-07T04:18:42;13.10;99.90
2973;DHT22;1496;51.404;7.232;2023-05-07T04:21:18;13.10;99.90
2973;DHT22;1496;51.404;7.232;2023-05-07T04:23:56;13.10;99.90
2973;DHT22;1496;51.404;7.232;2023-05-07T04:26:22;13.10;99.90
2973;DHT22;1496;51.404;7.232;2023-05-07T04:28:52;13.00;99.90
2973;DHT22;1496;51.404;7.232;2023-05-07T04:31:20;13.10;99.90
2973;DHT22;1496;51.404;7.232;2023-05-07T04:33:52;13.10;99.90
2973;DHT22;1496;51.404;7.232;2023-05-07T04:36:20;13.10;99.90
2973;DHT22;1496;51.404;7.232;2023-05-07T04:46:09;13.20;99.90
2973;DHT22;1496;51.404;7.232;2023-05-07T04:48:36;13.20;99.90
2973;DHT22;1496;51.404;7.232;2023-05-07T04:51:05;13.30;99.90
2973;DHT22;1496;51.404;7.232;2023-05-07T04:53:34;13.30;99.90
2973;DHT22;1496;51.404;7.232;2023-05-07T04:56:01;13.40;99.90
2973;DHT22;1496;51.404;7.232;2023-05-07T04:58:35;13.30;99.90
2973;DHT22;1496;51.404;7.232;2023-05-07T05:01:03;13.40;99.90
2973;DHT22;1496;51.404;7.232;2023-05-07T05:03:32;13.40;99.90
2973;DHT22;1496;51.404;7.232;2023-05-07T05:06:00;13.40;99.90
2973;DHT22;1496;51.404;7.232;2023-05-07T05:08:31;13.40;99.90
2973;DHT22;1496;51.404;7.232;2023-05-07T05:11:03;13.50;99.90
2973;DHT22;1496;51.404;7.232;2023-05-07T05:13:31;13.40;99.90
2973;DHT22;1496;51.404;7.232;2023-05-07T05:15:58;13.50;99.90
2973;DHT22;1496;51.404;7.232;2023-05-07T05:18:27;13.50;99.90
2973;DHT22;1496;51.404;7.232;2023-05-07T05:20:55;13.50;99.90
2973;DHT22;1496;51.404;7.232;2023-05-07T05:23:22;13.50;99.90
2973;DHT22;1496;51.404;7.232;2023-05-07T05:25:48;13.50;99.90
2973;DHT22;1496;51.404;7.232;2023-05-07T05:28:16;13.50;99.90
2973;DHT22;1496;51.404;7.232;2023-05-07T05:30:43;13.50;99.90
2973;DHT22;1496;51.404;7.232;2023-05-07T05:33:10;13.60;99.90
2973;DHT22;1496;51.404;7.232;2023-05-07T05:35:37;13.60;99.90
2973;DHT22;1496;51.404;7.232;2023-05-07T05:38:09;13.60;99.90
2973;DHT22;1496;51.404;7.232;2023-05-07T05:40:37;13.70;99.90
2973;DHT22;1496;51.404;7.232;2023-05-07T05:43:04;13.70;99.90
2973;DHT22;1496;51.404;7.232;2023-05-07T05:45:31;13.80;99.90
2973;DHT22;1496;51.404;7.232;2023-05-07T05:47:57;13.80;99.90
2973;DHT22;1496;51.404;7.232;2023-05-07T05:50:25;13.80;99.90
2973;DHT22;1496;51.404;7.232;2023-05-07T05:52:52;13.90;99.90
2973;DHT22;1496;51.404;7.232;2023-05-07T05:55:29;13.80;99.90
2973;DHT22;1496;51.404;7.232;2023-05-07T05:58:02;13.80;99.90
2973;DHT22;1496;51.404;7.232;2023-05-07T06:00:32;13.80;99.90
2973;DHT22;1496;51.404;7.232;2023-05-07T06:03:03;13.90;99.90
2973;DHT22;1496;51.404;7.232;2023-05-07T06:05:34;13.90;99.90
2973;DHT22;1496;51.404;7.232;2023-05-07T06:08:01;14.00;99.90
2973;DHT22;1496;51.404;7.232;2023-05-07T06:10:33;14.10;99.90
2973;DHT22;1496;51.404;7.232;2023-05-07T06:13:00;14.20;99.90
2973;DHT22;1496;51.404;7.232;2023-05-07T06:15:27;14.20;99.90
2973;DHT22;1496;51.404;7.232;2023-05-07T06:17:54;14.30;99.90
2973;DHT22;1496;51.404;7.232;2023-05-07T06:20:24;14.30;99.90
2973;DHT22;1496;51.404;7.232;2023-05-07T06:22:51;14.40;99.90
2973;DHT22;1496;51.404;7.232;2023-05-07T06:25:51;14.30;99.90
2973;DHT22;1496;51.404;7.232;2023-05-07T06:28:21;14.40;99.90
2973;DHT22;1496;51.404;7.232;2023-05-07T06:30:47;14.50;1.00
2973;DHT22;1496;51.404;7.232;2023-05-07T06:33:17;14.50;1.00
2973;DHT22;1496;51.404;7.232;2023-05-07T06:35:46;14.50;99.90
2973;DHT22;1496;51.404;7.232;2023-05-07T06:38:13;14.60;1.00
2973;DHT22;1496;51.404;7.232;2023-05-07T06:40:41;14.60;99.90
2973;DHT22;1496;51.404;7.232;2023-05-07T06:43:08;14.60;1.00
2973;DHT22;1496;51.404;7.232;2023-05-07T06:45:46;14.70;1.00
2973;DHT22;1496;51.404;7.232;2023-05-07T06:48:14;14.80;99.90
2973;DHT22;1496;51.404;7.232;2023-05-07T06:50:56;14.80;99.90
2973;DHT22;1496;51.404;7.232;2023-05-07T06:53:26;14.80;80.00
2973;DHT22;1496;51.404;7.232;2023-05-07T06:55:58;14.90;1.00
2973;DHT22;1496;51.404;7.232;2023-05-07T06:58:26;15.00;1.00
2973;DHT22;1496;51.404;7.232;2023-05-07T07:00:53;15.00;1.00
2973;DHT22;1496;51.404;7.232;2023-05-07T07:03:21;15.00;99.90
2973;DHT22;1496;51.404;7.232;2023-05-07T07:05:50;15.10;99.90
2973;DHT22;1496;51.404;7.232;2023-05-07T07:08:17;15.10;99.90
2973;DHT22;1496;51.404;7.232;2023-05-07T07:10:45;15.20;99.90
2973;DHT22;1496;51.404;7.232;2023-05-07T07:13:12;15.30;99.90
2973;DHT22;1496;51.404;7.232;2023-05-07T07:15:39;15.30;99.90
2973;DHT22;1496;51.404;7.232;2023-05-07T07:18:07;15.40;99.90
2973;DHT22;1496;51.404;7.232;2023-05-07T07:20:37;15.50;99.90
2973;DHT22;1496;51.404;7.232;2023-05-07T07:23:03;15.50;99.90
2973;DHT22;1496;51.404;7.232;2023-05-07T07:25:30;15.50;99.90
2973;DHT22;1496;51.404;7.232;2023-05-07T07:27:58;15.60;99.90
2973;DHT22;1496;51.404;7.232;2023-05-07T07:30:28;15.60;99.90
2973;DHT22;1496;51.404;7.232;2023-05-07T07:32:56;15.60;99.90
2973;DHT22;1496;51.404;7.232;2023-05-07T07:35:31;15.60;99.90
2973;DHT22;1496;51.404;7.232;2023-05-07T07:37:59;15.60;99.90
2973;DHT22;1496;51.404;7.232;2023-05-07T07:40:28;15.60;98.80
2973;DHT22;1496;51.404;7.232;2023-05-07T07:42:56;15.70;95.90
2973;DHT22;1496;51.404;7.232;2023-05-07T07:45:24;15.80;96.70
2973;DHT22;1496;51.404;7.232;2023-05-07T07:47:52;15.80;69.00
2973;DHT22;1496;51.404;7.232;2023-05-07T07:50:24;15.90;48.50
2973;DHT22;1496;51.404;7.232;2023-05-07T07:52:52;15.90;41.20
2973;DHT22;1496;51.404;7.232;2023-05-07T07:55:25;16.00;37.20
2973;DHT22;1496;51.404;7.232;2023-05-07T07:57:58;16.10;40.60
2973;DHT22;1496;51.404;7.232;2023-05-07T08:00:27;16.20;30.80
2973;DHT22;1496;51.404;7.232;2023-05-07T08:02:57;16.20;22.90
2973;DHT22;1496;51.404;7.232;2023-05-07T08:05:32;16.20;13.90
2973;DHT22;1496;51.404;7.232;2023-05-07T08:08:00;16.20;6.40
2973;DHT22;1496;51.404;7.232;2023-05-07T08:10:30;16.20;1.00
2973;DHT22;1496;51.404;7.232;2023-05-07T08:13:04;16.30;1.00
2973;DHT22;1496;51.404;7.232;2023-05-07T08:15:34;16.40;1.00
2973;DHT22;1496;51.404;7.232;2023-05-07T08:18:02;16.50;1.00
2973;DHT22;1496;51.404;7.232;2023-05-07T08:20:32;16.70;1.00
2973;DHT22;1496;51.404;7.232;2023-05-07T08:23:00;16.80;1.00
2973;DHT22;1496;51.404;7.232;2023-05-07T08:25:28;16.90;1.00
2973;DHT22;1496;51.404;7.232;2023-05-07T08:27:57;17.00;1.00
2973;DHT22;1496;51.404;7.232;2023-05-07T08:30:24;17.00;1.00
2973;DHT22;1496;51.404;7.232;2023-05-07T08:32:50;17.00;1.00
2973;DHT22;1496;51.404;7.232;2023-05-07T08:35:17;17.00;1.00
2973;DHT22;1496;51.404;7.232;2023-05-07T08:37:45;17.30;1.00
2973;DHT22;1496;51.404;7.232;2023-05-07T08:40:13;17.50;1.00
2973;DHT22;1496;51.404;7.232;2023-05-07T08:42:42;17.70;1.00
2973;DHT22;1496;51.404;7.232;2023-05-07T08:45:11;17.90;1.00
2973;DHT22;1496;51.404;7.232;2023-05-07T08:47:56;17.90;1.00
2973;DHT22;1496;51.404;7.232;2023-05-07T08:50:26;17.90;1.00
2973;DHT22;1496;51.404;7.232;2023-05-07T08:52:54;17.80;1.00
2973;DHT22;1496;51.404;7.232;2023-05-07T08:55:23;17.80;1.00
2973;DHT22;1496;51.404;7.232;2023-05-07T08:57:50;17.90;1.00
2973;DHT22;1496;51.404;7.232;2023-05-07T09:00:21;18.00;1.00
2973;DHT22;1496;51.404;7.232;2023-05-07T09:02:54;18.20;1.00
2973;DHT22;1496;51.404;7.232;2023-05-07T09:05:22;18.50;1.00
2973;DHT22;1496;51.404;7.232;2023-05-07T09:07:51;18.70;1.00
2973;DHT22;1496;51.404;7.232;2023-05-07T09:10:20;18.80;1.00
2973;DHT22;1496;51.404;7.232;2023-05-07T09:12:48;18.70;1.00
2973;DHT22;1496;51.404;7.232;2023-05-07T09:15:17;18.70;1.00
2973;DHT22;1496;51.404;7.232;2023-05-07T09:17:46;18.60;1.00
2973;DHT22;1496;51.404;7.232;2023-05-07T09:20:13;18.60;1.00
2973;DHT22;1496;51.404;7.232;2023-05-07T09:22:40;18.50;1.00
2973;DHT22;1496;51.404;7.232;2023-05-07T09:25:13;18.50;1.00
2973;DHT22;1496;51.404;7.232;2023-05-07T09:27:42;18.60;1.00
2973;DHT22;1496;51.404;7.232;2023-05-07T09:30:13;18.80;1.00
2973;DHT22;1496;51.404;7.232;2023-05-07T09:37:31;18.80;1.00
2973;DHT22;1496;51.404;7.232;2023-05-07T09:39:59;18.90;1.00
2973;DHT22;1496;51.404;7.232;2023-05-07T09:42:31;18.90;1.00
2973;DHT22;1496;51.404;7.232;2023-05-07T09:45:01;19.00;1.00
2973;DHT22;1496;51.404;7.232;2023-05-07T09:47:40;19.00;1.00
2973;DHT22;1496;51.404;7.232;2023-05-07T09:50:12;19.00;1.00
2973;DHT22;1496;51.404;7.232;2023-05-07T09:52:41;19.20;1.00
2973;DHT22;1496;51.404;7.232;2023-05-07T09:55:13;19.30;1.00
2973;DHT22;1496;51.404;7.232;2023-05-07T09:57:43;19.30;1.00
2973;DHT22;1496;51.404;7.232;2023-05-07T10:00:15;19.40;1.00
2973;DHT22;1496;51.404;7.232;2023-05-07T10:02:58;19.50;1.00
2973;DHT22;1496;51.404;7.232;2023-05-07T10:05:47;19.50;1.00
2973;DHT22;1496;51.404;7.232;2023-05-07T10:08:15;19.40;1.00
2973;DHT22;1496;51.404;7.232;2023-05-07T10:18:09;19.30;1.00
2973;DHT22;1496;51.404;7.232;2023-05-07T10:20:41;19.20;1.00
2973;DHT22;1496;51.404;7.232;2023-05-07T10:23:18;19.20;1.00
2973;DHT22;1496;51.404;7.232;2023-05-07T10:25:49;19.30;1.00
2973;DHT22;1496;51.404;7.232;2023-05-07T10:28:25;19.30;1.00
2973;DHT22;1496;51.404;7.232;2023-05-07T10:33:53;19.40;1.00
2973;DHT22;1496;51.404;7.232;2023-05-07T10:36:29;19.60;1.00
2973;DHT22;1496;51.404;7.232;2023-05-07T10:38:58;19.60;1.00
2973;DHT22;1496;51.404;7.232;2023-05-07T10:41:25;19.70;1.00
2973;DHT22;1496;51.404;7.232;2023-05-07T10:43:52;19.70;1.00
2973;DHT22;1496;51.404;7.232;2023-05-07T10:46:24;19.60;1.00
2973;DHT22;1496;51.404;7.232;2023-05-07T10:51:38;19.60;1.00
2973;DHT22;1496;51.404;7.232;2023-05-07T10:54:19;19.50;1.00
2973;DHT22;1496;51.404;7.232;2023-05-07T10:56:54;19.50;1.00
2973;DHT22;1496;51.404;7.232;2023-05-07T10:59:34;19.50;1.00
2973;DHT22;1496;51.404;7.232;2023-05-07T11:02:15;19.50;1.00
2973;DHT22;1496;51.404;7.232;2023-05-07T11:05:24;19.50;1.00
2973;DHT22;1496;51.404;7.232;2023-05-07T11:08:06;19.40;1.00
2973;DHT22;1496;51.404;7.232;2023-05-07T11:13:54;19.60;1.00
2973;DHT22;1496;51.404;7.232;2023-05-07T11:16:38;19.60;1.00
2973;DHT22;1496;51.404;7.232;2023-05-07T11:19:16;19.60;1.00
2973;DHT22;1496;51.404;7.232;2023-05-07T11:21:47;19.70;1.00
2973;DHT22;1496;51.404;7.232;2023-05-07T11:24:40;19.60;1.00
2973;DHT22;1496;51.404;7.232;2023-05-07T11:27:10;19.50;1.00
2973;DHT22;1496;51.404;7.232;2023-05-07T11:29:37;19.40;1.00
2973;DHT22;1496;51.404;7.232;2023-05-07T11:32:32;19.40;1.00
2973;DHT22;1496;51.404;7.232;2023-05-07T11:35:00;19.40;1.00
2973;DHT22;1496;51.404;7.232;2023-05-07T11:37:28;19.30;1.00
2973;DHT22;1496;51.404;7.232;2023-05-07T11:40:06;19.30;1.00
2973;DHT22;1496;51.404;7.232;2023-05-07T11:42:37;19.30;1.00
2973;DHT22;1496;51.404;7.232;2023-05-07T11:45:08;19.30;1.00
2973;DHT22;1496;51.404;7.232;2023-05-07T11:47:35;19.20;1.00
2973;DHT22;1496;51.404;7.232;2023-05-07T11:50:11;19.20;1.00
2973;DHT22;1496;51.404;7.232;2023-05-07T11:52:38;19.30;1.00
2973;DHT22;1496;51.404;7.232;2023-05-07T11:55:08;19.40;1.00
2973;DHT22;1496;51.404;7.232;2023-05-07T11:57:34;19.80;1.00
2973;DHT22;1496;51.404;7.232;2023-05-07T12:00:24;20.10;1.00
2973;DHT22;1496;51.404;7.232;2023-05-07T12:03:06;20.30;1.00
2973;DHT22;1496;51.404;7.232;2023-05-07T12:05:33;20.40;1.00
2973;DHT22;1496;51.404;7.232;2023-05-07T12:08:01;20.20;1.00
2973;DHT22;1496;51.404;7.232;2023-05-07T12:10:27;20.20;1.00
2973;DHT22;1496;51.404;7.232;2023-05-07T12:12:55;20.00;1.00
2973;DHT22;1496;51.404;7.232;2023-05-07T12:15:24;19.90;1.00
2973;DHT22;1496;51.404;7.232;2023-05-07T12:17:51;19.70;1.00
2973;DHT22;1496;51.404;7.232;2023-05-07T12:20:22;19.70;1.00
2973;DHT22;1496;51.404;7.232;2023-05-07T12:22:49;19.60;1.00
2973;DHT22;1496;51.404;7.232;2023-05-07T12:25:20;19.50;1.00
2973;DHT22;1496;51.404;7.232;2023-05-07T12:27:52;19.40;1.00
2973;DHT22;1496;51.404;7.232;2023-05-07T12:30:19;19.50;1.00
2973;DHT22;1496;51.404;7.232;2023-05-07T12:32:47;19.50;1.00
2973;DHT22;1496;51.404;7.232;2023-05-07T12:35:35;19.50;1.00
2973;DHT22;1496;51.404;7.232;2023-05-07T12:38:03;19.50;1.00
2973;DHT22;1496;51.404;7.232;2023-05-07T12:40:40;19.60;1.00
2973;DHT22;1496;51.404;7.232;2023-05-07T12:43:28;19.60;1.00
2973;DHT22;1496;51.404;7.232;2023-05-07T12:45:56;19.60;1.00
2973;DHT22;1496;51.404;7.232;2023-05-07T12:48:23;19.60;1.00
2973;DHT22;1496;51.404;7.232;2023-05-07T12:51:00;19.60;1.00
2973;DHT22;1496;51.404;7.232;2023-05-07T12:53:29;19.60;1.00
2973;DHT22;1496;51.404;7.232;2023-05-07T12:55:58;19.70;1.00
2973;DHT22;1496;51.404;7.232;2023-05-07T12:58:35;19.60;1.00
2973;DHT22;1496;51.404;7.232;2023-05-07T13:01:08;19.50;1.00
2973;DHT22;1496;51.404;7.232;2023-05-07T13:03:37;19.50;1.00
2973;DHT22;1496;51.404;7.232;2023-05-07T13:06:08;19.40;1.00
2973;DHT22;1496;51.404;7.232;2023-05-07T13:08:39;19.30;1.00
2973;DHT22;1496;51.404;7.232;2023-05-07T13:11:11;19.30;1.00
2973;DHT22;1496;51.404;7.232;2023-05-07T13:13:40;19.20;1.00
2973;DHT22;1496;51.404;7.232;2023-05-07T13:16:09;19.20;1.00
2973;DHT22;1496;51.404;7.232;2023-05-07T13:18:37;19.10;1.00
2973;DHT22;1496;51.404;7.232;2023-05-07T13:21:14;19.00;1.00
2973;DHT22;1496;51.404;7.232;2023-05-07T13:23:41;19.00;1.00
2973;DHT22;1496;51.404;7.232;2023-05-07T13:26:11;19.00;1.00
2973;DHT22;1496;51.404;7.232;2023-05-07T13:28:39;18.90;1.00
2973;DHT22;1496;51.404;7.232;2023-05-07T13:31:09;18.90;1.00
2973;DHT22;1496;51.404;7.232;2023-05-07T13:33:35;18.80;1.00
2973;DHT22;1496;51.404;7.232;2023-05-07T13:36:03;18.80;1.00
2973;DHT22;1496;51.404;7.232;2023-05-07T13:38:32;18.80;1.00
2973;DHT22;1496;51.404;7.232;2023-05-07T13:41:02;18.80;1.00
2973;DHT22;1496;51.404;7.232;2023-05-07T13:43:29;18.80;1.00
2973;DHT22;1496;51.404;7.232;2023-05-07T13:45:56;18.80;1.00
2973;DHT22;1496;51.404;7.232;2023-05-07T13:48:25;18.80;1.00
2973;DHT22;1496;51.404;7.232;2023-05-07T13:50:55;18.80;1.00
2973;DHT22;1496;51.404;7.232;2023-05-07T13:53:21;18.80;1.00
2973;DHT22;1496;51.404;7.232;2023-05-07T13:55:47;18.80;1.00
2973;DHT22;1496;51.404;7.232;2023-05-07T13:58:17;18.70;1.00
2973;DHT22;1496;51.404;7.232;2023-05-07T14:00:45;18.70;1.00
2973;DHT22;1496;51.404;7.232;2023-05-07T14:03:12;18.70;1.00
2973;DHT22;1496;51.404;7.232;2023-05-07T14:05:40;18.70;1.00
2973;DHT22;1496;51.404;7.232;2023-05-07T14:08:09;18.70;1.00
2973;DHT22;1496;51.404;7.232;2023-05-07T14:10:39;18.70;1.00
2973;DHT22;1496;51.404;7.232;2023-05-07T14:13:09;18.70;1.00
2973;DHT22;1496;51.404;7.232;2023-05-07T14:15:37;18.60;1.00
2973;DHT22;1496;51.404;7.232;2023-05-07T14:18:05;18.60;1.00
2973;DHT22;1496;51.404;7.232;2023-05-07T14:20:38;18.60;1.00
2973;DHT22;1496;51.404;7.232;2023-05-07T14:23:06;18.60;1.00
2973;DHT22;1496;51.404;7.232;2023-05-07T14:25:33;18.60;1.00
2973;DHT22;1496;51.404;7.232;2023-05-07T14:28:00;18.60;1.00
2973;DHT22;1496;51.404;7.232;2023-05-07T14:30:27;18.60;1.00
2973;DHT22;1496;51.404;7.232;2023-05-07T14:32:55;18.60;1.00
2973;DHT22;1496;51.404;7.232;2023-05-07T14:35:22;18.50;1.00
2973;DHT22;1496;51.404;7.232;2023-05-07T14:37:50;18.50;1.00
2973;DHT22;1496;51.404;7.232;2023-05-07T14:40:19;18.50;1.00
2973;DHT22;1496;51.404;7.232;2023-05-07T14:42:46;18.50;1.00
2973;DHT22;1496;51.404;7.232;2023-05-07T14:45:13;18.50;1.00
2973;DHT22;1496;51.404;7.232;2023-05-07T14:47:40;18.50;1.00
2973;DHT22;1496;51.404;7.232;2023-05-07T14:50:07;18.50;1.00
2973;DHT22;1496;51.404;7.232;2023-05-07T14:52:35;18.40;1.00
2973;DHT22;1496;51.404;7.232;2023-05-07T14:55:04;18.30;1.00
2973;DHT22;1496;51.404;7.232;2023-05-07T14:57:31;18.30;1.00
2973;DHT22;1496;51.404;7.232;2023-05-07T15:00:04;18.10;1.00
2973;DHT22;1496;51.404;7.232;2023-05-07T15:02:30;18.10;1.00
2973;DHT22;1496;51.404;7.232;2023-05-07T15:04:59;18.00;1.00
2973;DHT22;1496;51.404;7.232;2023-05-07T15:07:25;17.90;1.00
2973;DHT22;1496;51.404;7.232;2023-05-07T15:09:53;17.80;1.00
2973;DHT22;1496;51.404;7.232;2023-05-07T15:12:20;17.80;1.00
2973;DHT22;1496;51.404;7.232;2023-05-07T15:14:47;17.80;1.00
2973;DHT22;1496;51.404;7.232;2023-05-07T15:17:14;17.80;1.00
2973;DHT22;1496;51.404;7.232;2023-05-07T15:19:41;17.60;1.00
2973;DHT22;1496;51.404;7.232;2023-05-07T15:22:10;17.60;1.00
2973;DHT22;1496;51.404;7.232;2023-05-07T15:24:36;17.50;1.00
2973;DHT22;1496;51.404;7.232;2023-05-07T15:27:07;17.50;1.00
2973;DHT22;1496;51.404;7.232;2023-05-07T15:29:33;17.40;1.00
2973;DHT22;1496;51.404;7.232;2023-05-07T15:32:02;17.40;1.00
2973;DHT22;1496;51.404;7.232;2023-05-07T15:34:28;17.40;1.00
2973;DHT22;1496;51.404;7.232;2023-05-07T15:36:57;17.40;1.00
2973;DHT22;1496;51.404;7.232;2023-05-07T15:39:25;17.40;1.00
2973;DHT22;1496;51.404;7.232;2023-05-07T15:41:53;17.40;1.00
2973;DHT22;1496;51.404;7.232;2023-05-07T15:44:19;17.50;1.00
2973;DHT22;1496;51.404;7.232;2023-05-07T15:46:48;17.50;1.00
2973;DHT22;1496;51.404;7.232;2023-05-07T15:49:16;17.50;1.00
2973;DHT22;1496;51.404;7.232;2023-05-07T15:51:43;17.50;1.00
2973;DHT22;1496;51.404;7.232;2023-05-07T15:54:10;17.50;1.00
2973;DHT22;1496;51.404;7.232;2023-05-07T15:56:40;17.50;1.00
2973;DHT22;1496;51.404;7.232;2023-05-07T15:59:08;17.50;1.00
2973;DHT22;1496;51.404;7.232;2023-05-07T16:01:38;17.40;1.90
2973;DHT22;1496;51.404;7.232;2023-05-07T16:04:07;17.40;10.50
2973;DHT22;1496;51.404;7.232;2023-05-07T16:06:35;17.40;37.10
2973;DHT22;1496;51.404;7.232;2023-05-07T16:09:04;17.40;54.70
2973;DHT22;1496;51.404;7.232;2023-05-07T16:11:41;17.40;74.80
2973;DHT22;1496;51.404;7.232;2023-05-07T16:14:08;17.40;85.30
2973;DHT22;1496;51.404;7.232;2023-05-07T16:16:35;17.40;83.80
2973;DHT22;1496;51.404;7.232;2023-05-07T16:19:04;17.40;85.00
2973;DHT22;1496;51.404;7.232;2023-05-07T16:21:34;17.40;99.90
2973;DHT22;1496;51.404;7.232;2023-05-07T16:24:01;17.50;99.90
2973;DHT22;1496;51.404;7.232;2023-05-07T16:26:28;17.50;99.90
2973;DHT22;1496;51.404;7.232;2023-05-07T16:28:55;17.40;99.90
2973;DHT22;1496;51.404;7.232;2023-05-07T16:31:23;17.40;99.90
2973;DHT22;1496;51.404;7.232;2023-05-07T16:33:50;17.40;99.90
2973;DHT22;1496;51.404;7.232;2023-05-07T16:36:17;17.30;99.90
2973;DHT22;1496;51.404;7.232;2023-05-07T16:38:46;17.30;99.90
2973;DHT22;1496;51.404;7.232;2023-05-07T16:41:13;17.30;99.90
2973;DHT22;1496;51.404;7.232;2023-05-07T16:43:39;17.30;99.90
2973;DHT22;1496;51.404;7.232;2023-05-07T16:46:05;17.30;99.90
2973;DHT22;1496;51.404;7.232;2023-05-07T16:48:32;17.40;1.00
2973;DHT22;1496;51.404;7.232;2023-05-07T16:50:58;17.30;99.90
2973;DHT22;1496;51.404;7.232;2023-05-07T16:53:25;17.30;99.90
2973;DHT22;1496;51.404;7.232;2023-05-07T16:55:52;17.30;1.00